Choose a state:
Locations above flood stage
(46 streamgages are currently reporting water levels above the National Weather Service defined flood stage)
USGS
station
ID
USGS station name NWS
flood
stage
(ft)
Most recent
stage
(ft)
Most recent
flow
(cfs)
Historical
peaks
(cfs)
Most recent
local
date/time
NWS
station
ID
07077500Cache River at Patterson, AR 9 9.35 1,880 24,500 2023-02-07 13:15:00 PTTA4
02171700SANTEE RIVER NR JAMESTOWN, SC 10 11.87 20,200 103,000 2023-02-07 14:30:00 JAMS1
02489500Pearl River near Bogalusa, LA 18 20.84 35,800 133,000 2023-02-07 13:00:00 BXAL1
02478500CHICKASAWHAY RIVER AT LEAKESVILLE, MS 20 24.61 19,500 125,000 2023-02-07 13:15:00 LEKM6
08013000Calcasieu River nr Glenmora, LA 12 14.36 4,060 59,900 2023-02-07 13:30:00 GLML1
08037180Angelina Rv at Hwy 59 nr Lufkin, TX 161 163.83 3,740 19,700 2023-02-07 13:30:00 LUFT2
07348700Bayou Dorcheat near Springhill, LA 11 14.02 3,800 36,700 2023-02-07 13:00:00 SPHL1
07289730BIG BLACK RIVER NR BENTONIA, MS 22 25.78 13,700 86,000 2023-02-07 13:00:00 BTAM6
08013500Calcasieu River near Oberlin, LA 13 13.25 4,340 72,800 2023-02-07 13:15:00 OBCL1
02475000LEAF RIVER NR MCLAIN, MS 18 19.57 23,300 131,000 2023-02-07 13:15:00 MCLM6
08030500Sabine Rv nr Ruliff, TX 24 24.95 20,100 206,000 2023-02-07 12:45:00 DWYT2
08041700Pine Island Bayou nr Sour Lake, TX 25 25.55 1,880 50,500 2023-02-07 13:45:00 SOLT2
02198500SAVANNAH RIVER NEAR CLYO, GA 11 14.39 24,500 270,000 2023-02-07 14:15:00 CLYG1
07386880Vermilion River at Surrey St. at Lafayette, LA 10 10.07 2,330 6,280 2023-02-07 13:15:00 VLSL1
08012150Mermentau River At Mermentau, LA 4 4.29 10,300 58,000 2023-02-07 13:15:00 MRML1
02175000EDISTO RIVER NR GIVHANS, SC 10 10.88 6,380 26,600 2023-02-07 14:30:00 GIVS1
07290000BIG BLACK RIVER NR BOVINA, MS 28 32.42 13,300 92,300 2023-02-07 13:15:00 BOVM6
02488000PEARL RIVER AT ROCKPORT, MS 25 26.14 26,500 123,000 2023-02-07 13:30:00 ROCM6
02488500PEARL RIVER NR MONTICELLO, MS 22 23.37 29,300 122,000 2023-02-07 13:15:00 MTCM6
02489000PEARL RIVER NR COLUMBIA, MS 17 17.29 31,700 165,000 2023-02-07 13:15:00 CLMM6
07349650(COE) Byu Bodcau Lake nr Shreveport, LA (Landside) 172 179.77

 

2023-02-07 13:00:00 LBBL1
07349000Bayou Dorcheat near Minden, LA 14 17.29

 

44,800 2023-02-07 13:00:00 MNEL1
07362000Ouachita River at Camden, AR 26 29.50 25,900 243,000 2023-02-07 13:45:00 CAMA4
02469762TOMBIGBEE R BL COFFEEVILLE L&D NEAR COFFEEVILLE 29 34.32

 

2023-02-07 13:00:00 CLDA1
02470050TOMBIGBEE RIVER AT STEAMPLANT NR LEROY, AL 24 27.34

 

2023-02-07 13:00:00 LRYA1
02224940ALTAMAHA RIVER AT US 221, NR CHARLOTTEVILLE, GA 13 15.34 36,500 210,000 2023-02-07 14:45:00 CHRG1
06463720Niobrara River at Mariaville, Nebr. 5 5.68 Ice 30,900 2023-02-07 13:45:00 NISN1
02197500SAVANNAH R AT BURTONS FERRY BR NR MILLHAVEN, GA 15 15.84 22,100 220,000 2023-02-07 13:45:00 BFYG1
13137500TRAIL CREEK AT KETCHUM ID 7 7.23 Ice 750 2023-02-07 12:15:00 TCKI1
02479000PASCAGOULA RIVER AT MERRILL, MS 22 22.43 43,500 230,000 2023-02-07 13:15:00 MRRM6
07346045Black Cypress Bayou at Jefferson, TX 13 13.18 1,250 12,400 2023-02-07 13:00:00 JEFT2
08038000Attoyac Bayou nr Chireno, TX 14 15.78 1,850 50,000 2023-02-07 13:30:00 ATBT2
07289350BIG BLACK RIVER AT WEST, MS 15 18.10 5,620 71,200 2023-02-07 13:45:00 WSTM6
02482550PEARL RIVER NR CARTHAGE, MS 17 18.98 8,880 102,000 2023-02-07 13:45:00 CARM6
08033000Neches Rv nr Diboll, TX 12 12.92 4,710 110,000 2023-02-07 13:15:00 DIBT2
07372200Little River near Rochelle, LA 32 34.67 15,500 133,000 2023-02-07 13:30:00 RHLL1
02482000PEARL RIVER AT EDINBURG, MS 20 21.40 6,730 77,900 2023-02-07 13:45:00 ENBM6
02202500OGEECHEE RIVER NEAR EDEN, GA 11 12.32 7,610 78,000 2023-02-07 14:15:00 EDEG1
02228000SATILLA RIVER AT ATKINSON, GA 13 13.61 6,320 110,000 2023-02-07 14:45:00 ATKG1
08032000Neches Rv nr Neches, TX 12 12.58 1,480 45,500 2023-02-07 13:30:00 NCST2
02225500OHOOPEE RIVER NEAR REIDSVILLE, GA 11 12.72 3,740 47,000 2023-02-07 14:00:00 REDG1
06475000JAMES R NEAR REDFIELD,SD 20 36.58 Ice 17,000 2023-02-07 11:15:00 RFDS2
13120500BIG LOST RIVER AT HOWELL RANCH NR CHILLY ID 4 7.77 Ice 5,010 2023-02-07 12:00:00 HWRI1
02225000ALTAMAHA RIVER NEAR BAXLEY, GA 12.99 15.82 37,100 230,000 2023-02-07 14:45:00 BAXG1
02226000ALTAMAHA RIVER AT DOCTORTOWN, GA 12 12.00 40,500 300,000 2023-02-07 14:00:00 DCTG1
12061500SKOKOMISH RIVER NEAR POTLATCH, WA 16.5 16.66 4,150 36,600 2023-02-07 11:30:00 SRPW1